Time;durP1;ratioP1;P1;durP2;ratioP2;P2;SDS_P1;SDS_P2;PMS_P1;PMS_P2;Temp;Humidity;BMP_temperature;BMP_pressure;BME280_temperature;BME280_humidity;BME280_pressure;Samples;Min_cycle;Max_cycle;Signal;HPM_P1;HPM_P2
2021/06/21 00:01:54;;;;;;;5.80;2.60;;;19.90;99.90;;;;;;6211207;23;20008;-82
2021/06/21 00:04:21;;;;;;;6.93;2.70;;;19.80;99.90;;;;;;6209179;23;20461;-84
2021/06/21 00:06:48;;;;;;;6.72;2.40;;;19.80;99.90;;;;;;6204927;23;20051;-83
2021/06/21 00:09:15;;;;;;;7.72;2.90;;;19.70;99.90;;;;;;6194427;23;20016;-83
2021/06/21 00:11:42;;;;;;;6.97;2.60;;;19.60;99.90;;;;;;6210649;23;20020;-82
2021/06/21 00:14:09;;;;;;;8.20;2.65;;;19.50;99.90;;;;;;6212020;23;20461;-82
2021/06/21 00:16:37;;;;;;;5.05;2.35;;;19.60;99.90;;;;;;6209773;23;20028;-83
2021/06/21 00:19:04;;;;;;;6.78;2.80;;;19.50;99.90;;;;;;6212138;23;20071;-82
2021/06/21 00:21:31;;;;;;;7.38;2.60;;;19.40;99.90;;;;;;6211559;23;20020;-82
2021/06/21 00:23:57;;;;;;;6.22;2.53;;;19.40;99.90;;;;;;6212203;23;20071;-84
2021/06/21 00:26:24;;;;;;;8.00;2.97;;;19.40;99.90;;;;;;6212299;23;20063;-82
2021/06/21 00:28:51;;;;;;;8.43;2.88;;;19.40;99.90;;;;;;6212407;23;20020;-83
2021/06/21 00:31:18;;;;;;;8.55;2.88;;;19.30;99.90;;;;;;6210496;23;20079;-83
2021/06/21 00:33:46;;;;;;;6.28;2.97;;;19.30;99.90;;;;;;6211761;23;20501;-84
2021/06/21 00:36:13;;;;;;;10.85;3.03;;;19.20;99.90;;;;;;6211113;23;20012;-82
2021/06/21 00:38:40;;;;;;;10.25;2.80;;;19.20;99.90;;;;;;6210937;23;20070;-82
2021/06/21 00:41:07;;;;;;;5.20;2.50;;;19.20;99.90;;;;;;6221157;23;20095;-82
2021/06/21 00:43:34;;;;;;;7.18;2.72;;;19.20;99.90;;;;;;6212596;22;20016;-83
2021/06/21 00:46:01;;;;;;;5.65;2.83;;;19.20;99.90;;;;;;6211422;23;20524;-83
2021/06/21 00:48:28;;;;;;;7.60;2.92;;;19.20;99.90;;;;;;6213616;23;20020;-83
2021/06/21 00:50:56;;;;;;;5.00;2.70;;;19.00;99.90;;;;;;6211473;23;20024;-83
2021/06/21 00:53:24;;;;;;;5.72;2.45;;;18.80;99.90;;;;;;6211252;23;20067;-82
2021/06/21 00:55:51;;;;;;;6.20;2.75;;;18.80;99.90;;;;;;6211499;23;20098;-83
2021/06/21 00:58:18;;;;;;;6.53;3.00;;;18.90;99.90;;;;;;6184858;23;20016;-83
2021/06/21 01:00:45;;;;;;;9.27;2.80;;;19.00;99.90;;;;;;6212890;23;20070;-82
2021/06/21 01:03:12;;;;;;;8.10;3.05;;;19.10;99.90;;;;;;6187940;23;20347;-83
2021/06/21 01:05:39;;;;;;;6.90;3.20;;;19.00;99.90;;;;;;6210690;23;20024;-83
2021/06/21 01:08:09;;;;;;;7.03;2.78;;;19.00;99.90;;;;;;6183811;23;20017;-82
2021/06/21 01:10:37;;;;;;;8.05;3.35;;;18.90;99.90;;;;;;6212628;23;20021;-83
2021/06/21 01:13:36;;;;;;;5.47;2.63;;;18.80;99.90;;;;;;6212527;23;20012;-82
2021/06/21 01:16:14;;;;;;;7.78;2.90;;;18.80;99.90;;;;;;6210652;23;20067;-83
2021/06/21 01:18:50;;;;;;;6.43;3.25;;;18.80;99.90;;;;;;6211289;23;20111;-83
2021/06/21 01:21:40;;;;;;;8.40;3.30;;;18.80;99.90;;;;;;6211224;23;20028;-83
2021/06/21 01:24:42;;;;;;;5.15;3.20;;;18.70;99.90;;;;;;6211058;23;20509;-83
2021/06/21 01:27:27;;;;;;;6.70;3.00;;;18.70;99.90;;;;;;6186612;23;20083;-83
2021/06/21 01:30:01;;;;;;;7.78;3.20;;;18.70;99.90;;;;;;6210944;23;20052;-83
2021/06/21 01:32:39;;;;;;;8.20;3.15;;;18.80;99.90;;;;;;6210077;23;20476;-82
2021/06/21 01:35:09;;;;;;;6.47;3.13;;;18.70;99.90;;;;;;6186050;23;20016;-82
2021/06/21 01:37:37;;;;;;;5.45;2.75;;;18.60;99.90;;;;;;6210653;23;20017;-83
2021/06/21 01:40:06;;;;;;;7.57;3.20;;;18.40;99.90;;;;;;6186064;23;20020;-83
2021/06/21 01:42:33;;;;;;;5.15;3.13;;;18.40;99.90;;;;;;6209529;23;20040;-82
2021/06/21 01:45:04;;;;;;;6.45;3.25;;;18.40;99.90;;;;;;6211110;23;20017;-82
2021/06/21 01:47:33;;;;;;;8.20;3.20;;;18.30;99.90;;;;;;6210792;23;20016;-83
2021/06/21 01:50:00;;;;;;;4.30;2.80;;;18.30;99.90;;;;;;6209567;23;20090;-82
2021/06/21 01:52:34;;;;;;;7.32;3.20;;;18.20;99.90;;;;;;6219462;23;20072;-82
2021/06/21 01:55:02;;;;;;;9.63;3.92;;;18.30;99.90;;;;;;6211379;23;20017;-82
2021/06/21 01:57:32;;;;;;;5.80;3.10;;;18.30;99.90;;;;;;6211219;23;20078;-82
2021/06/21 02:00:01;;;;;;;;;;;18.10;99.90;;;;;;6211202;23;20398;-82
2021/06/21 02:02:30;;;;;;;6.07;3.03;;;18.20;99.90;;;;;;6184851;23;19974;-83
2021/06/21 02:05:00;;;;;;;;;;;18.20;99.90;;;;;;6211472;23;20050;-83
2021/06/21 02:07:27;;;;;;;7.53;3.20;;;18.20;99.90;;;;;;6185909;23;20342;-82
2021/06/21 02:09:56;;;;;;;8.60;3.65;;;18.20;99.90;;;;;;6212089;23;20087;-82
2021/06/21 02:12:25;;;;;;;5.53;3.72;;;18.10;99.90;;;;;;6221401;23;20385;-83
2021/06/21 02:14:53;;;;;;;;;;;18.00;99.90;;;;;;6211260;23;20025;-83
2021/06/21 02:17:22;;;;;;;7.90;3.75;;;17.90;99.90;;;;;;6185486;23;19923;-83
2021/06/21 02:19:51;;;;;;;6.07;3.67;;;17.90;99.90;;;;;;6212623;23;20020;-83
2021/06/21 02:22:22;;;;;;;5.93;3.85;;;17.90;99.90;;;;;;6220978;23;20083;-81
2021/06/21 02:24:50;;;;;;;5.18;3.53;;;18.00;99.90;;;;;;6212095;23;20028;-83
2021/06/21 02:27:19;;;;;;;8.35;3.85;;;18.10;99.90;;;;;;6211161;23;20020;-83
2021/06/21 02:29:48;;;;;;;6.70;3.90;;;18.10;99.90;;;;;;6211036;23;20323;-82
2021/06/21 02:32:16;;;;;;;10.87;4.20;;;18.20;99.90;;;;;;6210168;23;20021;-82
2021/06/21 02:34:42;;;;;;;6.53;3.90;;;18.10;99.90;;;;;;6210133;23;20243;-83
2021/06/21 02:37:10;;;;;;;6.22;3.97;;;18.10;99.90;;;;;;6210042;23;20086;-83
2021/06/21 02:39:39;;;;;;;8.13;4.30;;;18.00;99.90;;;;;;6210547;23;20020;-83
2021/06/21 02:42:06;;;;;;;9.40;4.07;;;18.00;99.90;;;;;;6210902;23;20027;-83
2021/06/21 02:44:33;;;;;;;6.70;4.20;;;18.10;99.90;;;;;;6210428;22;20017;-83
2021/06/21 02:47:01;;;;;;;6.70;4.18;;;18.10;99.90;;;;;;6211075;23;20397;-83
2021/06/21 02:49:28;;;;;;;9.82;4.35;;;18.00;99.90;;;;;;6208472;23;20024;-83
2021/06/21 02:52:01;;;;;;;6.93;3.85;;;18.00;99.90;;;;;;6211136;23;20025;-82
2021/06/21 02:54:37;;;;;;;6.47;4.53;;;18.10;99.90;;;;;;6219479;23;20028;-83
2021/06/21 02:57:14;;;;;;;8.75;4.47;;;18.00;99.90;;;;;;6211938;23;20017;-83
2021/06/21 02:59:44;;;;;;;7.80;4.63;;;18.10;99.90;;;;;;6211348;23;20389;-83
2021/06/21 03:02:14;;;;;;;7.68;4.70;;;18.10;99.90;;;;;;6208525;23;20012;-83
2021/06/21 03:04:42;;;;;;;8.38;5.10;;;18.10;99.90;;;;;;6220823;23;20013;-83
2021/06/21 03:07:12;;;;;;;9.73;5.00;;;18.10;99.90;;;;;;6213227;23;20451;-83
2021/06/21 03:09:42;;;;;;;9.07;5.38;;;18.20;99.90;;;;;;6209232;23;20020;-83
2021/06/21 03:12:17;;;;;;;8.18;4.70;;;18.20;99.90;;;;;;6208952;23;20037;-83
2021/06/21 03:14:46;;;;;;;7.32;4.75;;;18.20;99.90;;;;;;6212287;23;20016;-82
2021/06/21 03:17:15;;;;;;;10.50;5.47;;;18.20;99.90;;;;;;6214084;23;20072;-82
2021/06/21 03:19:43;;;;;;;9.10;5.20;;;18.30;99.90;;;;;;6211679;23;20082;-83
2021/06/21 03:22:10;;;;;;;6.68;4.88;;;18.30;99.90;;;;;;6212958;23;20397;-82
2021/06/21 03:24:37;;;;;;;9.13;5.25;;;18.20;99.90;;;;;;6213136;23;20017;-83
2021/06/21 03:27:05;;;;;;;10.15;5.72;;;18.10;99.90;;;;;;6208958;23;20032;-83
2021/06/21 03:29:36;;;;;;;7.57;5.43;;;18.10;99.90;;;;;;6211983;23;20078;-83
2021/06/21 03:32:23;;;;;;;8.98;5.38;;;18.10;99.90;;;;;;6215194;23;20024;-83
2021/06/21 03:34:50;;;;;;;7.47;4.82;;;17.80;99.90;;;;;;6212013;23;20121;-83
2021/06/21 03:37:17;;;;;;;8.20;4.82;;;17.90;99.90;;;;;;6211570;23;20438;-82
2021/06/21 03:39:44;;;;;;;8.38;5.75;;;17.80;99.90;;;;;;6211311;23;20025;-83
2021/06/21 03:42:11;;;;;;;6.80;5.47;;;17.70;99.90;;;;;;6213886;23;20051;-82
2021/06/21 03:44:39;;;;;;;8.50;5.47;;;17.80;99.90;;;;;;6211716;23;20017;-82
2021/06/21 03:47:06;;;;;;;9.98;5.40;;;17.80;99.90;;;;;;6211384;23;20840;-82
2021/06/21 03:49:33;;;;;;;9.63;5.25;;;17.60;99.90;;;;;;6213491;23;20020;-82
2021/06/21 03:52:00;;;;;;;6.60;5.35;;;17.60;99.90;;;;;;6211764;23;20021;-82
2021/06/21 03:54:27;;;;;;;6.72;4.65;;;17.70;99.90;;;;;;6211457;23;20021;-82
2021/06/21 03:56:54;;;;;;;9.68;4.80;;;17.40;99.90;;;;;;6211068;23;20016;-83
2021/06/21 03:59:21;;;;;;;7.50;5.07;;;17.50;99.90;;;;;;6186298;23;20078;-82
2021/06/21 04:01:49;;;;;;;7.30;4.55;;;17.60;99.90;;;;;;6210958;23;20013;-82
2021/06/21 04:04:16;;;;;;;7.90;5.03;;;17.40;99.90;;;;;;6219429;23;20394;-82
2021/06/21 04:06:43;;;;;;;6.57;4.47;;;17.40;99.90;;;;;;6208508;23;20079;-82
2021/06/21 04:09:11;;;;;;;6.68;4.97;;;17.40;99.90;;;;;;6209699;23;20396;-82
2021/06/21 04:11:38;;;;;;;5.65;4.97;;;17.30;99.90;;;;;;6211428;23;20021;-82
2021/06/21 04:14:05;;;;;;;5.82;4.88;;;17.30;99.90;;;;;;6210793;23;20070;-82
2021/06/21 04:16:32;;;;;;;8.65;5.55;;;17.20;99.90;;;;;;6209755;23;20028;-82
2021/06/21 04:19:00;;;;;;;7.90;4.65;;;17.30;99.90;;;;;;6213504;23;20020;-82
2021/06/21 04:21:27;;;;;;;7.28;4.45;;;17.40;99.90;;;;;;6211101;23;20075;-83
2021/06/21 04:23:55;;;;;;;7.40;4.60;;;17.50;99.90;;;;;;6207730;23;20013;-83
2021/06/21 04:26:23;;;;;;;5.45;3.78;;;17.70;99.90;;;;;;6205346;23;20020;-82
2021/06/21 04:28:50;;;;;;;6.30;4.20;;;17.70;99.90;;;;;;6211371;23;20069;-82
2021/06/21 04:31:17;;;;;;;6.47;4.22;;;17.70;99.90;;;;;;6209654;23;20016;-83
2021/06/21 04:33:44;;;;;;;6.80;3.85;;;17.70;99.90;;;;;;6212490;23;20012;-82
2021/06/21 04:36:12;;;;;;;6.20;3.30;;;17.70;99.90;;;;;;6208716;23;20066;-82
2021/06/21 04:38:39;;;;;;;5.40;3.70;;;17.60;99.90;;;;;;6223632;23;20024;-82
2021/06/21 04:41:06;;;;;;;6.22;3.40;;;17.70;99.90;;;;;;6212654;23;20450;-83
2021/06/21 04:43:34;;;;;;;3.80;3.10;;;17.50;99.90;;;;;;6211871;23;20047;-82
2021/06/21 04:46:03;;;;;;;5.78;3.47;;;17.50;99.90;;;;;;6211307;23;20019;-83
2021/06/21 04:48:30;;;;;;;8.25;3.47;;;17.50;99.90;;;;;;6186551;23;20465;-83
2021/06/21 04:50:57;;;;;;;4.63;3.33;;;17.60;99.90;;;;;;6207484;23;20028;-82
2021/06/21 04:53:25;;;;;;;5.63;3.05;;;17.60;99.90;;;;;;6208791;23;20111;-82
2021/06/21 04:55:52;;;;;;;5.32;3.00;;;17.70;99.90;;;;;;6209735;23;20074;-82
2021/06/21 04:58:19;;;;;;;4.40;3.20;;;17.80;99.90;;;;;;6211627;23;20099;-82
2021/06/21 05:00:46;;;;;;;6.25;3.30;;;17.60;99.90;;;;;;6212606;23;20019;-83
2021/06/21 05:03:13;;;;;;;4.97;3.53;;;17.60;99.90;;;;;;6212806;23;20029;-82
2021/06/21 05:05:40;;;;;;;4.07;3.10;;;17.50;99.90;;;;;;6214301;23;20063;-82
2021/06/21 05:08:06;;;;;;;5.30;3.35;;;17.60;99.90;;;;;;6212761;23;20020;-82
2021/06/21 05:10:35;;;;;;;5.25;3.22;;;17.60;99.90;;;;;;6211688;23;20398;-83
2021/06/21 05:13:01;;;;;;;4.32;3.20;;;17.60;99.90;;;;;;6187467;23;20066;-81
2021/06/21 05:15:28;;;;;;;5.10;3.55;;;17.80;99.90;;;;;;6214136;23;20020;-83
2021/06/21 05:17:55;;;;;;;4.72;3.15;;;17.70;99.90;;;;;;6212959;23;20016;-82
2021/06/21 05:20:23;;;;;;;4.95;3.42;;;17.60;99.90;;;;;;6212976;23;20017;-83
2021/06/21 05:22:51;;;;;;;5.32;3.08;;;17.50;99.90;;;;;;6213844;23;20016;-82
2021/06/21 05:25:19;;;;;;;5.65;3.58;;;17.50;99.90;;;;;;6223936;23;20063;-82
2021/06/21 05:27:48;;;;;;;5.63;4.05;;;17.40;99.90;;;;;;6223431;23;20017;-82
2021/06/21 05:30:15;;;;;;;7.97;4.15;;;17.40;99.90;;;;;;6212636;23;20016;-82
2021/06/21 05:32:42;;;;;;;5.10;4.22;;;17.50;99.90;;;;;;6213631;23;20079;-82
2021/06/21 05:35:11;;;;;;;5.28;4.07;;;17.50;99.90;;;;;;6212788;23;20087;-83
2021/06/21 05:37:43;;;;;;;6.55;4.85;;;17.40;99.90;;;;;;6212904;23;20084;-82
2021/06/21 05:40:12;;;;;;;7.25;5.07;;;17.20;99.90;;;;;;6212269;23;20067;-82
2021/06/21 05:42:39;;;;;;;6.95;5.15;;;17.20;99.90;;;;;;6213618;23;20074;-83
2021/06/21 05:45:08;;;;;;;7.93;5.65;;;17.40;99.90;;;;;;6212535;23;20580;-83
2021/06/21 05:47:35;;;;;;;8.30;5.85;;;17.30;99.90;;;;;;6214177;23;20021;-82
2021/06/21 05:50:02;;;;;;;6.75;4.97;;;17.30;99.90;;;;;;6211897;23;20013;-82
2021/06/21 05:52:29;;;;;;;9.00;5.50;;;17.40;99.90;;;;;;6211683;23;20070;-82
2021/06/21 05:54:59;;;;;;;6.75;5.25;;;17.50;99.90;;;;;;6212846;23;20498;-82
2021/06/21 05:57:26;;;;;;;6.40;5.22;;;17.60;99.90;;;;;;6213841;23;20031;-82
2021/06/21 05:59:53;;;;;;;6.95;5.53;;;17.50;99.90;;;;;;6212706;23;20020;-83
2021/06/21 06:02:22;;;;;;;7.43;5.95;;;17.40;99.90;;;;;;6223638;23;20074;-82
2021/06/21 06:04:50;;;;;;;7.93;6.00;;;17.20;99.90;;;;;;6223204;23;20079;-83
2021/06/21 06:07:17;;;;;;;8.48;6.35;;;17.20;99.90;;;;;;6212395;23;20067;-82
2021/06/21 06:09:44;;;;;;;11.13;6.65;;;17.10;99.90;;;;;;6213721;23;20066;-83
2021/06/21 06:12:11;;;;;;;9.63;6.47;;;17.20;99.90;;;;;;6212149;23;20020;-83
2021/06/21 06:14:38;;;;;;;7.28;5.45;;;17.20;99.90;;;;;;6212328;23;20020;-82
2021/06/21 06:17:05;;;;;;;8.43;5.93;;;17.40;99.90;;;;;;6213477;23;20036;-83
2021/06/21 06:19:33;;;;;;;9.55;5.13;;;17.40;99.90;;;;;;6211227;23;20021;-82
2021/06/21 06:22:00;;;;;;;7.60;5.47;;;17.50;99.90;;;;;;6213088;23;20040;-82
2021/06/21 06:24:27;;;;;;;7.78;5.32;;;17.50;99.90;;;;;;6210358;23;20043;-82
2021/06/21 06:26:54;;;;;;;9.13;5.43;;;17.50;99.90;;;;;;6211054;23;20028;-83
2021/06/21 06:29:21;;;;;;;7.10;5.07;;;17.30;99.90;;;;;;6203128;23;20012;-80
2021/06/21 06:31:48;;;;;;;6.90;5.05;;;17.20;99.90;;;;;;6179700;23;20017;-82
2021/06/21 06:34:16;;;;;;;7.10;5.18;;;17.10;99.90;;;;;;6209876;23;20411;-82
2021/06/21 06:36:44;;;;;;;10.63;5.53;;;17.20;99.90;;;;;;6209800;23;20024;-82
2021/06/21 06:39:11;;;;;;;7.43;5.22;;;17.00;99.90;;;;;;6211231;23;20398;-83
2021/06/21 06:41:38;;;;;;;8.48;5.85;;;16.90;99.90;;;;;;6209219;23;20066;-82
2021/06/21 06:44:05;;;;;;;7.50;5.80;;;16.90;99.90;;;;;;6235068;22;20398;-82
2021/06/21 06:46:32;;;;;;;9.27;6.25;;;17.00;99.90;;;;;;6224640;23;20454;-82
2021/06/21 06:48:59;;;;;;;8.35;5.85;;;17.10;99.90;;;;;;6215443;23;20023;-82
2021/06/21 06:51:30;;;;;;;8.95;6.22;;;17.10;99.90;;;;;;6217501;23;20434;-82
2021/06/21 06:54:06;;;;;;;10.27;6.15;;;17.10;99.90;;;;;;6243661;23;20078;-81
2021/06/21 06:59:18;;;;;;;8.55;6.93;;;17.00;99.90;;;;;;6238759;23;20016;-82
2021/06/21 07:01:45;;;;;;;9.23;6.55;;;16.90;99.90;;;;;;6217053;23;20012;-82
2021/06/21 07:04:12;;;;;;;10.15;7.00;;;16.90;99.90;;;;;;6215004;23;20331;-82
2021/06/21 07:06:39;;;;;;;12.88;6.93;;;16.90;99.90;;;;;;6217265;23;20016;-82
2021/06/21 07:09:07;;;;;;;10.82;7.95;;;16.80;99.90;;;;;;6227242;23;20573;-82
2021/06/21 07:11:36;;;;;;;11.60;7.80;;;16.90;99.90;;;;;;6217990;23;20016;-82
2021/06/21 07:14:04;;;;;;;11.65;8.55;;;16.80;99.90;;;;;;6217243;23;20438;-82
2021/06/21 07:16:31;;;;;;;9.68;7.38;;;16.80;99.90;;;;;;6242905;23;20087;-83
2021/06/21 07:18:58;;;;;;;10.57;7.53;;;16.80;99.90;;;;;;6217584;23;20078;-82
2021/06/21 07:21:25;;;;;;;9.63;7.22;;;16.70;99.90;;;;;;6215407;23;20066;-82
2021/06/21 07:23:51;;;;;;;8.30;6.57;;;16.70;99.90;;;;;;6226798;23;20026;-82
2021/06/21 07:26:20;;;;;;;8.48;6.28;;;16.70;99.90;;;;;;6215297;23;20073;-82
2021/06/21 07:28:48;;;;;;;8.77;6.35;;;16.80;99.90;;;;;;6216971;23;20020;-82
2021/06/21 07:31:15;;;;;;;10.45;6.57;;;16.60;99.90;;;;;;6242270;23;20131;-82
2021/06/21 07:33:43;;;;;;;7.55;5.30;;;16.70;99.90;;;;;;6242374;23;20020;-82
2021/06/21 07:36:09;;;;;;;6.22;4.50;;;16.70;99.90;;;;;;6215642;23;20454;-82
2021/06/21 07:38:36;;;;;;;6.45;4.18;;;16.60;99.90;;;;;;6216555;23;20078;-82
2021/06/21 07:41:03;;;;;;;4.88;3.42;;;16.70;99.90;;;;;;6242795;23;20027;-82
2021/06/21 07:43:32;;;;;;;5.25;3.20;;;16.70;99.90;;;;;;6215527;23;20405;-83
2021/06/21 07:45:59;;;;;;;4.47;3.10;;;16.70;99.90;;;;;;6216256;23;20023;-82
2021/06/21 07:48:26;;;;;;;5.13;3.17;;;16.70;99.90;;;;;;6215120;23;20020;-82
2021/06/21 07:50:53;;;;;;;6.07;3.55;;;16.70;99.90;;;;;;6218795;23;20055;-81
2021/06/21 07:53:20;;;;;;;4.47;2.50;;;16.70;99.90;;;;;;6244672;23;20066;-82
2021/06/21 07:55:47;;;;;;;2.80;1.98;;;16.70;99.90;;;;;;6240317;23;20055;-82
2021/06/21 07:58:14;;;;;;;2.35;1.42;;;16.70;99.90;;;;;;6215277;23;20016;-82
2021/06/21 08:00:42;;;;;;;3.03;1.25;;;16.70;99.90;;;;;;6215567;23;20020;-82
2021/06/21 08:03:11;;;;;;;2.53;1.40;;;16.60;99.90;;;;;;6217436;23;20075;-82
2021/06/21 08:05:41;;;;;;;3.65;1.35;;;16.70;99.90;;;;;;6215990;23;20438;-83
2021/06/21 08:08:08;;;;;;;2.65;1.40;;;16.70;99.90;;;;;;6215453;23;20023;-82
2021/06/21 08:10:35;;;;;;;2.28;1.30;;;16.90;99.90;;;;;;6215888;23;20020;-83
2021/06/21 08:13:02;;;;;;;1.50;0.93;;;17.20;99.90;;;;;;6215152;23;20131;-82
2021/06/21 08:15:29;;;;;;;1.55;0.85;;;17.50;99.90;;;;;;6214965;23;20012;-82
2021/06/21 08:17:58;;;;;;;1.55;1.02;;;17.50;99.90;;;;;;6240440;23;20012;-83
2021/06/21 08:20:25;;;;;;;1.50;0.95;;;17.70;99.90;;;;;;6225862;23;20016;-82
2021/06/21 08:22:52;;;;;;;3.17;0.90;;;17.70;99.90;;;;;;6226828;23;20024;-82
2021/06/21 08:25:19;;;;;;;2.33;0.82;;;17.70;99.90;;;;;;6214662;23;20022;-82
2021/06/21 08:27:47;;;;;;;1.58;0.90;;;18.00;99.90;;;;;;6215554;23;20016;-83
2021/06/21 08:30:14;;;;;;;1.15;0.70;;;18.10;99.90;;;;;;6242610;23;20016;-82
2021/06/21 08:32:41;;;;;;;1.60;0.75;;;18.00;99.90;;;;;;6239691;23;20024;-84
2021/06/21 08:35:11;;;;;;;1.67;0.85;;;17.80;99.90;;;;;;6214507;23;20023;-83
2021/06/21 08:37:38;;;;;;;1.42;0.80;;;18.00;99.90;;;;;;6214299;23;20439;-82
2021/06/21 08:40:07;;;;;;;1.65;0.88;;;18.40;99.90;;;;;;6215051;23;20024;-83
2021/06/21 08:42:35;;;;;;;0.75;0.55;;;18.80;99.90;;;;;;6214881;23;20027;-83
2021/06/21 08:45:02;;;;;;;0.80;0.60;;;19.30;99.90;;;;;;6241415;23;20378;-82
2021/06/21 08:47:29;;;;;;;1.45;0.70;;;19.50;99.90;;;;;;6213791;23;20039;-83
2021/06/21 08:49:56;;;;;;;2.75;0.80;;;19.50;99.90;;;;;;6241848;23;20024;-83
2021/06/21 08:52:25;;;;;;;1.90;0.70;;;19.50;99.90;;;;;;6240732;23;20023;-82
2021/06/21 08:54:52;;;;;;;1.08;0.80;;;19.70;99.90;;;;;;6215777;23;20012;-82
2021/06/21 08:57:19;;;;;;;1.92;0.75;;;19.10;99.90;;;;;;6215109;23;20074;-82
2021/06/21 08:59:46;;;;;;;1.55;1.00;;;19.40;99.90;;;;;;6216368;23;20024;-83
2021/06/21 09:02:14;;;;;;;2.00;1.25;;;19.60;99.90;;;;;;6241334;23;20019;-82
2021/06/21 09:04:41;;;;;;;2.13;1.20;;;19.80;99.90;;;;;;6215861;23;20016;-83
2021/06/21 09:07:17;;;;;;;1.60;1.00;;;20.10;99.90;;;;;;6241341;23;20016;-83
2021/06/21 09:09:46;;;;;;;2.08;1.27;;;20.20;99.90;;;;;;6215751;23;20019;-82
2021/06/21 09:12:22;;;;;;;1.73;0.90;;;20.40;99.90;;;;;;6216653;23;20327;-83
2021/06/21 09:14:50;;;;;;;3.90;1.60;;;20.10;99.90;;;;;;6226404;23;20027;-82
2021/06/21 09:17:19;;;;;;;2.40;1.42;;;19.90;99.90;;;;;;6242114;23;20016;-82
2021/06/21 09:19:50;;;;;;;;;;;19.90;99.90;;;;;;6216523;23;20450;-83
2021/06/21 09:22:22;;;;;;;1.95;1.40;;;20.00;99.90;;;;;;6242806;23;20226;-83
2021/06/21 09:24:50;;;;;;;2.65;1.30;;;20.50;99.90;;;;;;6226463;23;20516;-82
2021/06/21 09:27:18;;;;;;;2.40;1.40;;;20.70;99.90;;;;;;6208940;23;20062;-82
2021/06/21 09:29:45;;;;;;;2.78;1.70;;;20.50;99.90;;;;;;6240846;23;20078;-82
2021/06/21 09:32:41;;;;;;;2.67;1.63;;;20.40;99.90;;;;;;6218820;23;20055;-82
2021/06/21 09:35:10;;;;;;;2.63;1.80;;;20.20;99.90;;;;;;6242187;23;20020;-82
2021/06/21 09:37:47;;;;;;;3.13;1.90;;;20.30;99.90;;;;;;6224540;23;20015;-83
2021/06/21 09:40:26;;;;;;;2.95;1.90;;;20.10;99.90;;;;;;6241938;23;20385;-83
2021/06/21 09:42:54;;;;;;;3.53;2.08;;;20.00;99.90;;;;;;6241835;23;20023;-83
2021/06/21 09:45:21;;;;;;;4.97;2.13;;;20.00;99.90;;;;;;6213625;23;20012;-82
2021/06/21 09:47:48;;;;;;;3.75;2.05;;;20.00;99.90;;;;;;6224485;23;20523;-83
2021/06/21 09:50:17;;;;;;;3.00;2.13;;;20.20;99.90;;;;;;6214422;23;20027;-83
2021/06/21 09:52:49;;;;;;;3.42;2.15;;;20.30;99.90;;;;;;6215282;23;20016;-83
2021/06/21 09:55:19;;;;;;;2.95;1.92;;;20.40;99.90;;;;;;6213884;23;20020;-82
2021/06/21 09:57:59;;;;;;;3.63;2.50;;;20.40;99.90;;;;;;6214148;23;20024;-83
2021/06/21 10:00:26;;;;;;;3.08;2.13;;;20.50;99.90;;;;;;6216085;23;20028;-83
2021/06/21 10:03:10;;;;;;;3.83;1.88;;;20.70;99.90;;;;;;6216041;23;20477;-82
2021/06/21 10:05:42;;;;;;;3.42;2.40;;;20.60;99.90;;;;;;6215487;23;20518;-83
2021/06/21 10:08:11;;;;;;;3.10;2.20;;;20.80;99.90;;;;;;6224942;23;20016;-83
2021/06/21 10:10:39;;;;;;;3.33;1.77;;;20.90;99.90;;;;;;6242805;23;20012;-83
2021/06/21 10:13:11;;;;;;;3.40;2.20;;;21.00;99.90;;;;;;6215409;23;20024;-82
2021/06/21 10:15:38;;;;;;;3.80;2.10;;;21.20;99.90;;;;;;6215521;23;20020;-82
2021/06/21 10:18:06;;;;;;;5.40;2.70;;;21.00;99.90;;;;;;6213642;23;20016;-83
2021/06/21 10:20:33;;;;;;;4.68;2.88;;;21.00;99.90;;;;;;6251410;23;20050;-82
2021/06/21 10:23:04;;;;;;;5.13;3.42;;;20.90;99.90;;;;;;6251749;23;20074;-83
2021/06/21 10:25:32;;;;;;;5.70;3.30;;;20.70;99.90;;;;;;6217081;23;20046;-83
2021/06/21 10:28:00;;;;;;;3.95;2.88;;;20.60;99.90;;;;;;6243146;23;20023;-83
2021/06/21 10:30:29;;;;;;;5.47;3.55;;;20.70;99.90;;;;;;6217818;23;20070;-83
2021/06/21 10:32:56;;;;;;;4.93;3.17;;;20.90;99.90;;;;;;6217385;23;20342;-82
2021/06/21 10:35:29;;;;;;;4.35;3.08;;;21.20;99.90;;;;;;6216954;23;20020;-81
2021/06/21 10:37:59;;;;;;;5.20;3.20;;;21.30;99.90;;;;;;6216812;23;20016;-83
2021/06/21 10:40:26;;;;;;;5.57;3.60;;;21.00;99.90;;;;;;6254557;23;20016;-82
2021/06/21 10:42:53;;;;;;;4.25;3.10;;;20.80;99.90;;;;;;6227366;23;20420;-83
2021/06/21 10:45:22;;;;;;;4.97;3.60;;;20.70;99.90;;;;;;6242749;23;20016;-82
2021/06/21 10:47:51;;;;;;;6.10;3.60;;;20.70;99.90;;;;;;6241243;23;20127;-82
2021/06/21 10:50:25;;;;;;;5.13;3.58;;;20.90;99.90;;;;;;6243339;23;20516;-82
2021/06/21 10:52:59;;;;;;;5.38;3.38;;;21.20;99.90;;;;;;6242410;23;20027;-83
2021/06/21 10:55:47;;;;;;;5.80;3.40;;;21.50;99.90;;;;;;6241987;23;20019;-83
2021/06/21 10:58:40;;;;;;;5.45;3.20;;;21.70;99.90;;;;;;6243595;23;20323;-83
2021/06/21 11:01:19;;;;;;;3.38;2.60;;;21.70;99.90;;;;;;6244143;23;20342;-82
2021/06/21 11:03:49;;;;;;;4.45;3.40;;;21.60;99.90;;;;;;6244001;23;20016;-82
2021/06/21 11:06:34;;;;;;;;;;;21.20;99.90;;;;;;6243385;23;20012;-83
2021/06/21 11:09:01;;;;;;;7.38;4.07;;;20.80;99.90;;;;;;6241237;23;19919;-83
2021/06/21 11:11:43;;;;;;;5.97;4.57;;;20.50;99.90;;;;;;6242538;23;20073;-83
2021/06/21 11:14:12;;;;;;;8.00;4.47;;;20.40;99.90;;;;;;6252901;23;20012;-82
2021/06/21 11:16:41;;;;;;;5.75;4.50;;;20.40;99.90;;;;;;6241589;23;20075;-83
2021/06/21 11:19:33;;;;;;;7.35;4.40;;;20.30;99.90;;;;;;6241838;23;20081;-83
2021/06/21 11:22:05;;;;;;;6.32;4.57;;;20.20;99.90;;;;;;6241153;23;20315;-83
2021/06/21 11:24:53;;;;;;;6.45;4.70;;;20.00;99.90;;;;;;6242139;23;20069;-82
2021/06/21 11:27:25;;;;;;;5.97;4.68;;;20.10;99.90;;;;;;6243084;23;20043;-82
2021/06/21 11:29:54;;;;;;;7.05;4.63;;;20.20;99.90;;;;;;6252110;23;20450;-82
2021/06/21 11:32:23;;;;;;;8.02;5.20;;;20.40;99.90;;;;;;6251481;23;20020;-82
2021/06/21 11:34:53;;;;;;;6.80;5.35;;;20.60;99.90;;;;;;6215193;23;20241;-82
2021/06/21 11:37:38;;;;;;;6.55;4.63;;;20.90;99.90;;;;;;6216503;23;20078;-82
2021/06/21 11:40:22;;;;;;;6.70;4.82;;;21.10;99.90;;;;;;6242332;23;20024;-81
2021/06/21 11:43:12;;;;;;;6.03;4.60;;;21.10;99.90;;;;;;6218158;23;20017;-82
2021/06/21 11:45:50;;;;;;;6.68;4.72;;;21.00;99.90;;;;;;6237223;23;20384;-83
2021/06/21 11:48:26;;;;;;;8.48;6.47;;;20.90;99.90;;;;;;6239080;23;20074;-83
2021/06/21 11:50:55;;;;;;;11.85;6.45;;;20.50;99.90;;;;;;6241189;23;20019;-83
2021/06/21 11:53:24;;;;;;;7.50;5.75;;;20.60;99.90;;;;;;6242075;23;20070;-83
2021/06/21 11:55:52;;;;;;;7.22;5.57;;;20.80;99.90;;;;;;6239472;23;20012;-83
2021/06/21 11:58:30;;;;;;;7.63;5.55;;;20.90;99.90;;;;;;6240722;23;20016;-82
2021/06/21 12:00:57;;;;;;;7.20;5.13;;;20.70;99.90;;;;;;6239824;23;20020;-83
2021/06/21 12:03:32;;;;;;;8.43;5.07;;;20.40;99.90;;;;;;6242327;23;20020;-82
2021/06/21 12:06:02;;;;;;;6.60;5.30;;;20.80;99.90;;;;;;6252849;23;20016;-82
2021/06/21 12:08:33;;;;;;;;;;;20.30;99.90;;;;;;6242987;23;20500;-82
2021/06/21 12:11:10;;;;;;;6.82;5.03;;;20.40;99.90;;;;;;6240708;23;19920;-82
2021/06/21 12:13:37;;;;;;;7.32;5.40;;;20.30;99.90;;;;;;6243573;23;20024;-82
2021/06/21 12:16:08;;;;;;;6.50;5.40;;;20.20;99.90;;;;;;6243633;23;20260;-82
2021/06/21 12:18:35;;;;;;;6.53;5.38;;;20.00;99.90;;;;;;6242404;23;20020;-82
2021/06/21 12:21:03;;;;;;;6.72;5.45;;;20.00;99.90;;;;;;6216240;23;20023;-83
2021/06/21 12:23:30;;;;;;;7.85;6.00;;;20.10;99.90;;;;;;6215751;23;20016;-82
2021/06/21 12:25:58;;;;;;;7.88;6.10;;;20.00;99.90;;;;;;6216089;23;20342;-82
2021/06/21 12:28:26;;;;;;;8.23;6.57;;;19.80;99.90;;;;;;6239351;23;20020;-82
2021/06/21 12:30:55;;;;;;;10.70;7.15;;;19.80;99.90;;;;;;6242395;23;20035;-81
2021/06/21 12:33:34;;;;;;;9.18;6.95;;;19.90;99.90;;;;;;6242938;23;20020;-82
2021/06/21 12:36:10;;;;;;;;;;;19.90;99.90;;;;;;6242854;23;20023;-82
2021/06/21 12:38:39;;;;;;;9.90;7.65;;;20.00;99.90;;;;;;6243004;23;19965;-82
2021/06/21 12:41:10;;;;;;;9.97;7.83;;;20.10;99.90;;;;;;6242605;23;20016;-82
2021/06/21 12:46:18;;;;;;;9.55;6.35;;;20.60;99.90;;;;;;6241242;23;20028;-86
2021/06/21 12:48:45;;;;;;;8.93;7.10;;;20.80;99.90;;;;;;6215902;23;20098;-86
2021/06/21 12:51:14;;;;;;;8.85;6.63;;;21.00;99.90;;;;;;6213983;23;20078;-84
2021/06/21 12:53:43;;;;;;;10.65;7.13;;;21.00;99.90;;;;;;6210872;23;20082;-86
2021/06/21 12:56:18;;;;;;;9.10;6.07;;;21.40;99.90;;;;;;6206924;23;20021;-85
2021/06/21 12:58:45;;;;;;;9.82;7.07;;;21.30;99.90;;;;;;6212417;23;20020;-86
2021/06/21 13:01:21;;;;;;;10.73;7.28;;;21.30;99.90;;;;;;6211739;23;20084;-84
2021/06/21 13:03:48;;;;;;;8.30;6.40;;;21.30;99.90;;;;;;6211585;23;20027;-85
2021/06/21 13:06:35;;;;;;;11.02;6.72;;;21.00;99.90;;;;;;6233492;23;20074;-84